Time;durP1;ratioP1;P1;durP2;ratioP2;P2;SDS_P1;SDS_P2;PMS_P1;PMS_P2;Temp;Humidity;BMP_temperature;BMP_pressure;BME280_temperature;BME280_humidity;BME280_pressure;Samples;Min_cycle;Max_cycle;Signal;HPM_P1;HPM_P2
2023/07/04 00:01:09;;;;;;;7.20;4.45;;;;;;;23.74;43.84;101089.44;5002392;28;20226;-29
2023/07/04 00:03:38;;;;;;;9.23;4.20;;;;;;;23.73;43.50;101093.19;4999966;28;20366;-30
2023/07/04 00:06:07;;;;;;;12.45;5.47;;;;;;;23.70;43.52;101094.38;5001014;28;20054;-29
2023/07/04 00:08:34;;;;;;;9.02;4.35;;;;;;;23.69;44.00;101091.88;5000821;28;20077;-29
2023/07/04 00:11:02;;;;;;;10.25;4.70;;;;;;;23.67;44.07;101097.44;4999730;28;20046;-30
2023/07/04 00:13:31;;;;;;;8.40;4.85;;;;;;;23.65;44.25;101091.38;5002909;28;20514;-30
2023/07/04 00:15:58;;;;;;;8.18;4.43;;;;;;;23.63;44.29;101088.81;5000625;28;20350;-29
2023/07/04 00:18:27;;;;;;;10.40;4.30;;;;;;;23.61;44.19;101096.31;5002737;28;20057;-30
2023/07/04 00:20:56;;;;;;;7.78;3.95;;;;;;;23.61;43.64;101106.28;4998220;28;20137;-30
2023/07/04 00:23:29;;;;;;;11.68;4.00;;;;;;;23.57;44.20;101103.09;5000158;28;20056;-30
2023/07/04 00:25:56;;;;;;;8.88;4.45;;;;;;;23.56;43.95;101104.13;4998480;28;20046;-30
2023/07/04 00:28:24;;;;;;;9.23;4.22;;;;;;;23.54;44.01;101111.59;4997758;28;20050;-30
2023/07/04 00:30:53;;;;;;;8.10;4.07;;;;;;;23.53;43.99;101117.19;4997236;28;20062;-30
2023/07/04 00:33:26;;;;;;;9.80;4.03;;;;;;;23.50;44.33;101128.38;4999919;28;20046;-31
2023/07/04 00:36:07;;;;;;;8.70;3.60;;;;;;;23.47;44.90;101126.03;5002977;28;20073;-30
2023/07/04 00:38:35;;;;;;;10.45;3.60;;;;;;;23.45;44.59;101118.09;5002730;28;20142;-30
2023/07/04 00:41:06;;;;;;;10.00;4.80;;;;;;;23.43;44.61;101125.53;4998488;28;20445;-30
2023/07/04 00:44:14;;;;;;;9.27;3.95;;;;;;;23.39;44.62;101126.94;4999283;28;20061;-30
2023/07/04 00:47:04;;;;;;;8.25;3.88;;;;;;;23.38;44.40;101126.09;5000768;28;20081;-31
2023/07/04 00:49:42;;;;;;;7.18;3.65;;;;;;;23.36;44.89;101124.63;5005548;28;20073;-31
2023/07/04 00:52:16;;;;;;;9.25;4.55;;;;;;;23.35;44.37;101131.03;5001294;28;20061;-30
2023/07/04 00:54:52;;;;;;;9.85;4.05;;;;;;;23.34;45.08;101126.66;5000254;28;20042;-30
2023/07/04 00:57:21;;;;;;;8.32;4.05;;;;;;;23.32;44.69;101134.97;4999779;28;20356;-31
2023/07/04 00:59:52;;;;;;;9.02;3.80;;;;;;;23.30;44.90;101137.00;5001597;28;20050;-30
2023/07/04 01:02:22;;;;;;;6.30;3.58;;;;;;;23.29;44.90;101127.19;5004190;28;20073;-30
2023/07/04 01:04:52;;;;;;;8.90;3.78;;;;;;;23.28;44.74;101127.41;5002928;28;20042;-30
2023/07/04 01:07:38;;;;;;;8.45;3.75;;;;;;;23.26;45.32;101129.41;4999280;28;20050;-32
2023/07/04 01:10:12;;;;;;;7.35;4.05;;;;;;;23.26;44.60;101114.03;4998425;28;20434;-30
2023/07/04 01:12:39;;;;;;;;;;;;;;;23.23;45.18;101116.25;5000949;28;20968;-31
2023/07/04 01:15:08;;;;;;;7.38;3.60;;;;;;;23.25;44.94;101117.75;5007691;28;19929;-31
2023/07/04 01:17:35;;;;;;;7.50;3.75;;;;;;;23.24;44.88;101107.16;5004040;28;20058;-31
2023/07/04 01:20:08;;;;;;;9.07;4.00;;;;;;;23.22;44.68;101111.88;5003756;28;20130;-31
2023/07/04 01:22:45;;;;;;;6.53;3.60;;;;;;;23.20;45.03;101114.78;5000850;28;20693;-31
2023/07/04 01:25:21;;;;;;;6.25;3.60;;;;;;;23.19;45.11;101104.13;5002291;28;20054;-31
2023/07/04 01:27:49;;;;;;;6.43;3.83;;;;;;;23.19;44.73;101110.38;5005795;28;20046;-31
2023/07/04 01:30:17;;;;;;;6.22;3.28;;;;;;;23.17;44.81;101100.78;5004962;28;20445;-31
2023/07/04 01:32:45;;;;;;;7.65;3.97;;;;;;;23.15;45.06;101104.47;5003562;28;20449;-30
2023/07/04 01:35:13;;;;;;;6.88;3.70;;;;;;;23.14;44.59;101104.66;5006490;28;20489;-32
2023/07/04 01:37:40;;;;;;;6.13;3.10;;;;;;;23.13;44.52;101106.53;5005759;28;20058;-31
2023/07/04 01:40:08;;;;;;;6.03;3.30;;;;;;;23.14;44.65;101107.38;5002917;28;20133;-30
2023/07/04 01:42:36;;;;;;;8.32;3.40;;;;;;;23.12;44.81;101109.44;5003985;28;20065;-32
2023/07/04 01:45:05;;;;;;;6.38;3.08;;;;;;;23.11;44.55;101105.03;5003992;28;20050;-32
2023/07/04 01:47:34;;;;;;;9.30;3.40;;;;;;;23.09;44.98;101113.31;5002938;28;20084;-32
2023/07/04 01:50:02;;;;;;;6.78;3.05;;;;;;;23.09;45.04;101121.44;5005662;28;20084;-31
2023/07/04 01:52:29;;;;;;;6.50;3.58;;;;;;;23.08;44.62;101121.63;5002711;28;20505;-31
2023/07/04 01:54:56;;;;;;;5.10;3.47;;;;;;;23.06;44.85;101112.84;5000856;28;20049;-30
2023/07/04 01:57:23;;;;;;;6.82;3.72;;;;;;;23.06;44.62;101113.69;5004697;28;20050;-31
2023/07/04 01:59:50;;;;;;;5.70;2.90;;;;;;;23.05;44.91;101112.00;5005849;28;20045;-31
2023/07/04 02:02:17;;;;;;;4.57;2.70;;;;;;;23.04;44.52;101117.59;5001546;28;20140;-30
2023/07/04 02:04:44;;;;;;;8.45;3.40;;;;;;;23.03;44.59;101114.03;5001023;28;20054;-31
2023/07/04 02:07:13;;;;;;;5.82;2.72;;;;;;;23.02;44.99;101112.34;5004332;28;20305;-31
2023/07/04 02:09:42;;;;;;;4.22;2.28;;;;;;;23.01;44.72;101107.97;5003125;28;20358;-31
2023/07/04 02:12:09;;;;;;;6.15;2.67;;;;;;;23.01;44.52;101115.25;5004583;28;20141;-31
2023/07/04 02:14:36;;;;;;;4.15;2.45;;;;;;;23.00;44.66;101114.41;5003442;28;20374;-31
2023/07/04 02:17:02;;;;;;;4.80;2.72;;;;;;;22.98;44.55;101116.44;5004695;28;20077;-31
2023/07/04 02:19:29;;;;;;;5.80;2.72;;;;;;;22.98;44.62;101112.91;5001665;28;20054;-31
2023/07/04 02:21:56;;;;;;;5.55;3.20;;;;;;;22.97;44.61;101109.34;5005030;28;20042;-31
2023/07/04 02:24:22;;;;;;;7.93;2.85;;;;;;;22.96;44.83;101112.25;4998628;28;20339;-30
2023/07/04 02:26:49;;;;;;;6.57;2.40;;;;;;;22.95;44.52;101111.38;5004138;28;20540;-31
2023/07/04 02:29:16;;;;;;;4.15;2.47;;;;;;;22.94;44.98;101109.72;5003159;28;20050;-31
2023/07/04 02:31:42;;;;;;;7.60;2.47;;;;;;;22.93;44.90;101110.75;4999380;28;20092;-32
2023/07/04 02:34:09;;;;;;;3.00;2.10;;;;;;;22.94;44.73;101120.53;5003503;28;20069;-31
2023/07/04 02:36:36;;;;;;;4.43;2.35;;;;;;;22.92;44.67;101119.03;4999909;28;20125;-31
2023/07/04 02:39:04;;;;;;;4.38;2.53;;;;;;;22.91;45.00;101110.06;5004607;28;20054;-31
2023/07/04 02:41:31;;;;;;;4.15;2.35;;;;;;;22.90;45.42;101116.47;5005680;28;20125;-31
2023/07/04 02:43:59;;;;;;;5.15;2.33;;;;;;;22.89;44.74;101112.09;5002117;28;20050;-31
2023/07/04 02:46:26;;;;;;;6.53;2.50;;;;;;;22.90;44.69;101121.88;5000710;28;20045;-31
2023/07/04 02:48:52;;;;;;;4.32;2.45;;;;;;;22.88;45.08;101118.53;5000766;28;20477;-31
2023/07/04 02:51:19;;;;;;;5.50;2.00;;;;;;;22.87;44.89;101124.94;5004265;28;20062;-31
2023/07/04 02:53:46;;;;;;;4.45;1.98;;;;;;;22.86;44.71;101121.38;5002200;28;20057;-32
2023/07/04 02:56:12;;;;;;;4.07;2.42;;;;;;;22.86;44.89;101120.53;5005233;28;20493;-32
2023/07/04 02:58:39;;;;;;;3.67;1.90;;;;;;;22.84;45.08;101114.50;5004961;28;20054;-32
2023/07/04 03:01:06;;;;;;;6.85;2.33;;;;;;;22.83;44.71;101112.78;5004408;28;20411;-31
2023/07/04 03:03:33;;;;;;;4.22;2.25;;;;;;;22.82;44.96;101116.53;5003746;28;20349;-31
2023/07/04 03:06:00;;;;;;;4.43;2.33;;;;;;;22.82;44.99;101121.94;5001859;28;20100;-31
2023/07/04 03:08:27;;;;;;;5.03;2.20;;;;;;;22.81;45.11;101120.25;5002157;28;20045;-31
2023/07/04 03:10:53;;;;;;;3.72;2.38;;;;;;;22.80;44.95;101119.41;5004205;28;20081;-31
2023/07/04 03:13:20;;;;;;;3.33;1.88;;;;;;;22.80;44.88;101121.28;5001170;28;20082;-31
2023/07/04 03:15:47;;;;;;;3.75;1.95;;;;;;;22.78;44.89;101124.13;4999607;28;20155;-32
2023/07/04 03:18:14;;;;;;;3.80;2.35;;;;;;;22.78;44.69;101128.72;5001526;28;20422;-32
2023/07/04 03:20:40;;;;;;;5.03;2.25;;;;;;;22.77;45.09;101135.13;5004006;28;20081;-31
2023/07/04 03:23:08;;;;;;;6.85;3.03;;;;;;;22.76;44.91;101130.75;5003554;28;20131;-32
2023/07/04 03:25:34;;;;;;;5.40;2.17;;;;;;;22.76;45.03;101136.16;5001881;28;20054;-32
2023/07/04 03:28:01;;;;;;;4.13;2.17;;;;;;;22.76;44.87;101122.66;5002933;28;20445;-31
2023/07/04 03:30:27;;;;;;;4.00;2.58;;;;;;;22.75;44.85;101120.94;5003931;28;20062;-30
2023/07/04 03:32:54;;;;;;;4.90;1.90;;;;;;;22.74;44.86;101127.38;5004715;28;20088;-31
2023/07/04 03:35:21;;;;;;;3.63;2.42;;;;;;;22.74;45.26;101121.97;5000676;28;20332;-31
2023/07/04 03:37:47;;;;;;;3.58;1.90;;;;;;;22.72;44.81;101132.97;5003537;28;20520;-31
2023/07/04 03:40:14;;;;;;;4.72;2.45;;;;;;;22.72;44.84;101134.84;5002546;28;20104;-30
2023/07/04 03:42:40;;;;;;;3.55;1.98;;;;;;;22.71;45.27;101133.97;5004868;28;20045;-31
2023/07/04 03:45:08;;;;;;;3.80;2.00;;;;;;;22.71;44.98;101136.69;4998493;28;20465;-30
2023/07/04 03:47:34;;;;;;;3.10;1.70;;;;;;;22.70;44.91;101135.00;5006693;28;20050;-30
2023/07/04 03:50:01;;;;;;;3.30;1.98;;;;;;;22.71;44.87;101135.84;5004068;28;20898;-30
2023/07/04 03:52:28;;;;;;;4.22;1.63;;;;;;;22.70;45.20;101131.47;5001616;28;20050;-30
2023/07/04 03:54:54;;;;;;;7.18;2.22;;;;;;;22.69;44.98;101133.31;5000711;28;20054;-30
2023/07/04 03:57:21;;;;;;;5.28;1.80;;;;;;;22.69;44.83;101137.88;5002980;28;20069;-30
2023/07/04 03:59:48;;;;;;;3.97;1.77;;;;;;;22.68;44.93;101131.66;5001838;28;20389;-30
2023/07/04 04:02:14;;;;;;;3.10;2.00;;;;;;;22.69;44.97;101138.72;4999931;28;20430;-30
2023/07/04 04:04:41;;;;;;;2.88;1.63;;;;;;;22.67;45.02;101138.91;5000591;28;20042;-30
2023/07/04 04:07:10;;;;;;;2.17;1.90;;;;;;;22.67;45.36;101136.22;5003923;28;20064;-30
2023/07/04 04:09:38;;;;;;;3.67;1.95;;;;;;;22.67;45.51;101141.63;4997377;28;20062;-30
2023/07/04 04:12:06;;;;;;;3.03;1.75;;;;;;;22.66;45.01;101137.22;5002127;28;20150;-30
2023/07/04 04:14:34;;;;;;;3.92;1.90;;;;;;;22.65;45.12;101138.25;5000849;28;20334;-30
2023/07/04 04:17:00;;;;;;;3.35;1.88;;;;;;;22.65;44.97;101132.00;5000294;28;20088;-30
2023/07/04 04:19:27;;;;;;;3.78;1.67;;;;;;;22.65;45.10;101143.63;4995277;28;20041;-31
2023/07/04 04:21:54;;;;;;;5.13;1.70;;;;;;;22.65;45.12;101140.09;5001529;28;20343;-30
2023/07/04 04:24:22;;;;;;;4.25;1.90;;;;;;;22.65;45.39;101140.94;4999823;28;20366;-30
2023/07/04 04:26:49;;;;;;;3.65;1.70;;;;;;;22.65;44.92;101140.09;4998762;28;20362;-30
2023/07/04 04:29:17;;;;;;;6.90;1.88;;;;;;;22.65;45.13;101142.81;4995842;28;20392;-30
2023/07/04 04:31:48;;;;;;;3.13;1.88;;;;;;;22.65;45.43;101142.81;4998085;28;20058;-30
2023/07/04 04:34:21;;;;;;;2.78;1.50;;;;;;;22.65;45.06;101150.91;4997047;28;20081;-30
2023/07/04 04:36:48;;;;;;;2.85;1.67;;;;;;;22.66;45.29;101149.88;4997045;28;20058;-31
2023/07/04 04:39:14;;;;;;;4.20;2.30;;;;;;;22.65;45.31;101146.34;4993562;28;20070;-30
2023/07/04 04:41:41;;;;;;;4.13;2.28;;;;;;;22.63;45.28;101148.41;5000393;28;20124;-31
2023/07/04 04:44:08;;;;;;;3.80;1.70;;;;;;;22.63;45.29;101142.13;5001166;28;20052;-31
2023/07/04 04:46:35;;;;;;;3.60;1.77;;;;;;;22.63;45.30;101143.00;5000226;28;20050;-30
2023/07/04 04:49:02;;;;;;;4.13;1.70;;;;;;;22.64;45.08;101150.06;5004898;28;20046;-31
2023/07/04 04:51:31;;;;;;;3.67;1.65;;;;;;;22.64;45.38;101160.88;5008071;28;20137;-30
2023/07/04 04:53:58;;;;;;;3.97;2.05;;;;;;;22.64;45.19;101160.88;5004010;28;20050;-31
2023/07/04 04:56:25;;;;;;;5.07;2.25;;;;;;;22.64;45.39;101157.34;5005478;28;20050;-31
2023/07/04 04:58:52;;;;;;;4.30;1.85;;;;;;;22.65;45.09;101148.22;5003494;28;20392;-31
2023/07/04 05:01:22;;;;;;;3.88;1.95;;;;;;;22.65;45.41;101159.00;5005266;28;20061;-31
2023/07/04 05:03:52;;;;;;;4.63;1.70;;;;;;;22.64;45.22;101163.59;5004492;28;20119;-32
2023/07/04 05:06:21;;;;;;;4.00;1.80;;;;;;;22.64;45.18;101157.34;5005515;28;20315;-31
2023/07/04 05:08:48;;;;;;;5.75;2.00;;;;;;;22.64;45.38;101162.75;5004641;28;20057;-31
2023/07/04 05:11:15;;;;;;;5.43;2.00;;;;;;;22.64;45.17;101162.75;5006687;28;20077;-31
2023/07/04 05:13:44;;;;;;;3.10;1.60;;;;;;;22.64;45.49;101158.19;5003031;28;20403;-32
2023/07/04 05:16:14;;;;;;;4.13;1.50;;;;;;;22.65;45.33;101159.00;5007724;28;20046;-31
2023/07/04 05:18:42;;;;;;;2.45;1.50;;;;;;;22.64;45.49;101155.47;5004378;28;20426;-32
2023/07/04 05:21:15;;;;;;;3.90;1.95;;;;;;;22.66;45.44;101161.53;5005103;28;20055;-31
2023/07/04 05:23:44;;;;;;;4.18;1.77;;;;;;;22.67;45.39;101160.53;5004167;28;20085;-33
2023/07/04 05:26:13;;;;;;;4.53;2.03;;;;;;;22.69;45.73;101168.44;5005258;28;20077;-33
2023/07/04 05:28:40;;;;;;;4.88;1.63;;;;;;;22.70;45.37;101164.72;5005181;28;20104;-31
2023/07/04 05:31:11;;;;;;;4.95;2.25;;;;;;;22.70;45.43;101167.41;5002749;28;20504;-32
2023/07/04 05:33:42;;;;;;;4.82;1.95;;;;;;;22.73;45.47;101174.34;5000892;28;20342;-32
2023/07/04 05:36:27;;;;;;;5.88;2.30;;;;;;;22.73;45.66;101171.66;5000827;28;20051;-32
2023/07/04 05:39:02;;;;;;;4.40;1.92;;;;;;;22.75;45.24;101170.44;5006200;28;20057;-32
2023/07/04 05:41:31;;;;;;;4.95;2.05;;;;;;;22.77;45.29;101176.50;5007857;28;20678;-32
2023/07/04 05:44:00;;;;;;;3.80;1.60;;;;;;;22.79;45.25;101179.03;5004549;28;20462;-32
2023/07/04 05:46:27;;;;;;;3.42;1.52;;;;;;;22.80;44.79;101181.56;5004074;28;20116;-32
2023/07/04 05:48:54;;;;;;;4.82;1.60;;;;;;;22.81;45.28;101179.72;5008751;28;20088;-32
2023/07/04 05:51:21;;;;;;;6.82;2.38;;;;;;;22.83;44.93;101183.06;4998873;28;20184;-32
2023/07/04 05:53:50;;;;;;;3.60;2.03;;;;;;;22.86;44.90;101182.72;5001452;28;20056;-32
2023/07/04 05:56:25;;;;;;;4.10;1.75;;;;;;;22.87;45.19;101184.38;5003853;28;20050;-32
2023/07/04 05:58:54;;;;;;;5.43;1.58;;;;;;;22.89;44.65;101182.38;5004369;28;20050;-32
2023/07/04 06:01:32;;;;;;;5.35;1.83;;;;;;;22.91;45.14;101193.84;5000872;28;20046;-32
2023/07/04 06:04:00;;;;;;;6.65;1.63;;;;;;;22.93;44.69;101182.88;5002477;28;20053;-32
2023/07/04 06:06:40;;;;;;;3.97;1.80;;;;;;;22.94;45.19;101189.97;5003996;28;20045;-32
2023/07/04 06:09:15;;;;;;;4.22;1.67;;;;;;;22.94;44.77;101198.91;5004058;28;20104;-32
2023/07/04 06:11:45;;;;;;;3.70;1.45;;;;;;;22.95;44.65;101192.47;5004677;28;20041;-32
2023/07/04 06:14:18;;;;;;;4.20;1.55;;;;;;;22.94;45.11;101193.50;5006029;28;20046;-33
2023/07/04 06:16:44;;;;;;;3.83;1.23;;;;;;;22.96;45.05;101193.34;5001214;28;20112;-32
2023/07/04 06:19:11;;;;;;;2.70;1.67;;;;;;;22.95;44.84;101199.75;5001387;28;20381;-32
2023/07/04 06:21:38;;;;;;;4.88;1.77;;;;;;;22.95;45.06;101197.91;5008948;28;20073;-32
2023/07/04 06:24:10;;;;;;;6.50;1.77;;;;;;;22.95;44.67;101197.06;5000652;28;20046;-32
2023/07/04 06:26:37;;;;;;;5.07;1.80;;;;;;;22.94;44.59;101195.38;5005222;28;20134;-32
2023/07/04 06:29:04;;;;;;;4.18;1.27;;;;;;;22.95;44.91;101194.34;5017982;28;20057;-31
2023/07/04 06:31:31;;;;;;;4.00;1.83;;;;;;;22.96;44.76;101198.75;4999654;28;20077;-32
2023/07/04 06:33:59;;;;;;;6.38;1.67;;;;;;;22.95;44.73;101203.31;5003376;28;20324;-31
2023/07/04 06:36:26;;;;;;;4.97;1.40;;;;;;;22.96;44.52;101212.28;5003038;28;20046;-31
2023/07/04 06:38:53;;;;;;;4.25;1.27;;;;;;;22.95;44.77;101214.13;4998901;28;20093;-32
2023/07/04 06:41:20;;;;;;;5.70;1.75;;;;;;;22.95;44.71;101214.13;5003258;28;20108;-31
2023/07/04 06:43:47;;;;;;;4.97;1.70;;;;;;;22.96;44.79;101215.81;5003306;28;20450;-32
2023/07/04 06:46:17;;;;;;;4.13;1.45;;;;;;;22.96;44.90;101221.22;5003190;28;20124;-32
2023/07/04 06:48:48;;;;;;;5.05;1.63;;;;;;;22.96;44.85;101218.53;5000691;28;20626;-32
2023/07/04 06:51:16;;;;;;;9.48;2.63;;;;;;;22.96;44.91;101209.56;4998439;28;20053;-32
2023/07/04 06:53:44;;;;;;;3.85;1.50;;;;;;;22.96;44.78;101218.53;4999259;28;20108;-32
2023/07/04 06:56:20;;;;;;;6.80;1.70;;;;;;;22.97;44.54;101214.78;5003001;28;20398;-32
2023/07/04 06:58:50;;;;;;;6.18;1.65;;;;;;;22.98;44.54;101223.75;5005099;28;20064;-32
2023/07/04 07:01:19;;;;;;;5.95;1.50;;;;;;;22.99;44.42;101220.00;5000412;28;20061;-31
2023/07/04 07:03:46;;;;;;;4.68;1.85;;;;;;;22.97;44.71;101208.53;4999633;28;20082;-32
2023/07/04 07:06:13;;;;;;;6.95;1.52;;;;;;;22.99;44.97;101220.00;4998953;28;20042;-32
2023/07/04 07:08:40;;;;;;;7.68;1.60;;;;;;;22.96;44.46;101218.53;5001101;28;20049;-31
2023/07/04 07:11:10;;;;;;;6.15;1.95;;;;;;;22.96;44.57;101232.03;4998698;28;20054;-32
2023/07/04 07:13:37;;;;;;;7.07;1.95;;;;;;;22.95;44.98;101235.75;5002556;28;20322;-32
2023/07/04 07:16:19;;;;;;;9.35;1.75;;;;;;;22.92;44.74;101235.28;4998486;28;20042;-32
2023/07/04 07:18:47;;;;;;;6.70;1.83;;;;;;;22.93;44.68;101243.19;4999452;28;20050;-32
2023/07/04 07:21:18;;;;;;;4.97;1.58;;;;;;;22.90;44.92;101240.81;5003211;28;20112;-31
2023/07/04 07:23:45;;;;;;;7.05;1.85;;;;;;;22.89;45.00;101241.84;5002904;28;20053;-31
2023/07/04 07:26:15;;;;;;;5.68;2.10;;;;;;;22.88;45.13;101243.69;5001415;28;20054;-31
2023/07/04 07:28:48;;;;;;;4.75;2.15;;;;;;;22.89;44.94;101242.66;5004415;28;20133;-31
2023/07/04 07:31:20;;;;;;;5.50;2.00;;;;;;;22.89;45.37;101236.44;5001015;28;20100;-31
2023/07/04 07:33:48;;;;;;;7.85;2.17;;;;;;;22.90;45.04;101238.09;5003221;28;20057;-31
2023/07/04 07:36:24;;;;;;;6.45;2.28;;;;;;;22.90;45.29;101246.22;4991537;28;20045;-31
2023/07/04 07:38:53;;;;;;;8.27;2.50;;;;;;;22.92;45.14;101263.16;4991873;28;20503;-31
2023/07/04 07:41:27;;;;;;;8.68;2.75;;;;;;;22.92;45.04;101263.16;4998022;28;20081;-31
2023/07/04 07:43:53;;;;;;;7.40;2.63;;;;;;;22.94;45.45;101263.78;5000802;28;20591;-32
2023/07/04 07:46:20;;;;;;;7.10;2.40;;;;;;;22.95;45.42;101254.66;5002620;28;20042;-31
2023/07/04 07:48:48;;;;;;;7.28;2.97;;;;;;;22.97;45.47;101255.34;5002824;28;20081;-31
2023/07/04 07:51:16;;;;;;;7.75;3.50;;;;;;;22.98;45.02;101262.44;5000126;28;20439;-32
2023/07/04 07:53:45;;;;;;;8.95;3.28;;;;;;;23.01;45.37;101263.94;5004711;28;20113;-31
2023/07/04 07:56:14;;;;;;;11.05;4.68;;;;;;;23.03;45.32;101264.59;5000832;28;20145;-31
2023/07/04 07:58:41;;;;;;;9.23;3.25;;;;;;;23.05;45.20;101262.56;4998213;28;20053;-32
2023/07/04 08:01:19;;;;;;;10.40;3.75;;;;;;;23.07;45.65;101257.81;4999991;28;20120;-31
2023/07/04 08:03:46;;;;;;;10.05;4.25;;;;;;;23.10;44.95;101249.34;4998770;28;20805;-30
2023/07/04 08:06:24;;;;;;;10.95;4.28;;;;;;;23.11;45.75;101245.63;4998433;28;20061;-31
2023/07/04 08:08:52;;;;;;;8.40;4.03;;;;;;;23.12;45.17;101253.59;4997577;28;20085;-31
2023/07/04 08:11:20;;;;;;;8.18;3.70;;;;;;;23.14;45.58;101246.13;5000558;28;20143;-31
2023/07/04 08:13:47;;;;;;;9.95;3.83;;;;;;;23.16;45.10;101245.97;4999796;28;20050;-31
2023/07/04 08:16:20;;;;;;;10.57;4.25;;;;;;;23.18;45.59;101248.47;4998783;28;20042;-31
2023/07/04 08:18:47;;;;;;;8.67;3.73;;;;;;;23.19;45.26;101252.84;4998197;28;20050;-31
2023/07/04 08:21:14;;;;;;;7.32;3.55;;;;;;;23.21;45.56;101254.38;5002562;28;20049;-31
2023/07/04 08:23:41;;;;;;;10.13;3.67;;;;;;;23.22;45.49;101264.16;5004863;28;20061;-30
2023/07/04 08:26:14;;;;;;;16.35;5.45;;;;;;;23.24;45.53;101256.72;5007017;28;20461;-31
2023/07/04 08:28:40;;;;;;;20.25;6.25;;;;;;;23.26;45.47;101254.66;4999672;28;20054;-31
2023/07/04 08:31:08;;;;;;;22.13;5.63;;;;;;;23.28;45.34;101262.63;5002269;28;20221;-30
2023/07/04 08:33:36;;;;;;;15.50;4.95;;;;;;;23.29;45.22;101269.72;5001771;28;20141;-31
2023/07/04 08:36:08;;;;;;;16.52;4.53;;;;;;;23.30;45.35;101271.38;5000037;28;20066;-31
2023/07/04 08:38:35;;;;;;;19.63;5.27;;;;;;;23.30;45.32;101272.22;5005550;28;20767;-30
2023/07/04 08:41:03;;;;;;;15.02;5.00;;;;;;;23.31;45.46;101268.50;4997391;28;20058;-30
2023/07/04 08:43:41;;;;;;;21.15;5.35;;;;;;;23.31;45.08;101265.78;5000887;28;20054;-32
2023/07/04 08:46:13;;;;;;;15.32;4.70;;;;;;;23.33;44.91;101273.75;5001837;28;20386;-31
2023/07/04 08:48:42;;;;;;;11.35;4.00;;;;;;;23.33;44.85;101271.88;5007214;28;20133;-31
2023/07/04 08:51:15;;;;;;;14.20;4.35;;;;;;;23.33;44.83;101276.44;5005729;28;20054;-30
2023/07/04 08:53:43;;;;;;;;;;;;;;;23.33;44.52;101273.75;5005221;28;20315;-31
2023/07/04 08:56:37;;;;;;;13.57;4.22;;;;;;;23.33;44.32;101282.69;5003221;28;20016;-30
2023/07/04 08:59:15;;;;;;;15.98;5.72;;;;;;;23.34;44.63;101281.66;5004078;28;20125;-31
2023/07/04 09:02:01;;;;;;;15.65;4.53;;;;;;;23.33;44.54;101279.16;5002094;28;20105;-31
2023/07/04 09:04:46;;;;;;;17.27;4.47;;;;;;;23.32;44.73;101283.72;5003668;28;20073;-31
2023/07/04 09:07:37;;;;;;;16.00;5.25;;;;;;;23.33;44.44;101285.41;5001239;28;20050;-30
2023/07/04 09:10:36;;;;;;;12.35;3.97;;;;;;;23.32;44.29;101289.13;5004386;28;20054;-32
2023/07/04 09:13:06;;;;;;;11.15;4.28;;;;;;;23.35;44.27;101290.63;4998792;28;22108;-31
2023/07/04 09:15:41;;;;;;;9.77;4.03;;;;;;;23.34;44.56;101297.06;5007495;28;20286;-31
2023/07/04 09:18:39;;;;;;;11.15;4.30;;;;;;;23.33;43.96;101303.50;5010091;28;20108;-32
2023/07/04 09:21:17;;;;;;;11.40;4.00;;;;;;;23.33;44.10;101304.34;5005105;28;20054;-31
2023/07/04 09:23:46;;;;;;;18.55;4.18;;;;;;;23.35;44.47;101304.16;5001774;28;20096;-31
2023/07/04 09:26:16;;;;;;;13.55;4.05;;;;;;;23.34;44.66;101316.84;5002848;28;20074;-32
2023/07/04 09:28:45;;;;;;;7.90;3.45;;;;;;;23.34;43.95;101306.00;5009966;28;20111;-31
2023/07/04 09:31:18;;;;;;;12.02;4.28;;;;;;;23.34;44.39;101306.00;5004970;28;20109;-31
2023/07/04 09:33:49;;;;;;;12.57;3.25;;;;;;;23.34;44.53;101311.44;5000726;28;20426;-31
2023/07/04 09:36:17;;;;;;;13.20;4.45;;;;;;;23.35;44.39;101314.97;5003289;28;20077;-32
2023/07/04 09:38:55;;;;;;;10.52;3.80;;;;;;;23.33;43.57;101307.03;5002500;28;20046;-31
2023/07/04 09:41:28;;;;;;;11.32;3.83;;;;;;;23.35;44.11;101315.81;5003844;28;20046;-31
2023/07/04 09:43:56;;;;;;;9.50;3.70;;;;;;;23.35;43.76;101310.41;5003155;28;20068;-31
2023/07/04 09:46:31;;;;;;;14.35;3.50;;;;;;;23.35;43.42;101309.56;5002399;28;20042;-31
2023/07/04 09:49:19;;;;;;;13.90;3.58;;;;;;;23.35;43.50;101314.97;5002041;28;20054;-31
2023/07/04 09:52:01;;;;;;;9.93;4.03;;;;;;;23.36;44.13;101313.97;5003740;28;20048;-31
2023/07/04 09:54:30;;;;;;;10.32;3.13;;;;;;;23.37;43.88;101310.25;5002389;28;20104;-31
2023/07/04 09:57:15;;;;;;;6.75;2.75;;;;;;;23.37;43.56;101321.91;4999644;28;20046;-31
2023/07/04 09:59:42;;;;;;;9.30;2.88;;;;;;;23.38;43.73;101331.69;5002773;28;20092;-31
2023/07/04 10:02:17;;;;;;;10.10;2.85;;;;;;;23.38;43.11;101323.56;5002358;28;20046;-31
2023/07/04 10:04:47;;;;;;;10.88;3.15;;;;;;;23.39;43.32;101325.25;4998568;28;20056;-30
2023/07/04 10:07:15;;;;;;;10.05;3.00;;;;;;;23.40;43.34;101332.38;5001938;28;20049;-31
2023/07/04 10:10:01;;;;;;;9.15;2.33;;;;;;;23.39;42.96;101329.81;5001164;28;20076;-30
2023/07/04 10:12:32;;;;;;;8.70;3.00;;;;;;;23.43;43.41;101341.13;5001378;28;20042;-30
2023/07/04 10:15:00;;;;;;;9.75;2.75;;;;;;;23.44;43.27;101337.41;5002179;28;20062;-31
2023/07/04 10:17:39;;;;;;;8.23;2.53;;;;;;;23.43;43.08;101335.72;4988946;28;20050;-30
2023/07/04 10:20:14;;;;;;;16.20;2.40;;;;;;;23.45;43.28;101339.13;5006267;28;20048;-31
2023/07/04 10:22:52;;;;;;;8.30;2.67;;;;;;;23.45;43.24;101353.47;4999466;28;20115;-31
2023/07/04 10:25:21;;;;;;;8.60;2.67;;;;;;;23.46;43.30;101340.78;5006484;28;20418;-31
2023/07/04 10:27:53;;;;;;;11.05;2.42;;;;;;;23.45;43.31;101353.47;5001690;28;20046;-31
2023/07/04 10:30:24;;;;;;;6.45;2.17;;;;;;;23.46;42.90;101338.91;5002932;28;20057;-30
2023/07/04 10:32:56;;;;;;;8.63;2.38;;;;;;;23.46;43.23;101347.03;5003935;28;20050;-30
2023/07/04 10:35:27;;;;;;;10.35;2.90;;;;;;;23.46;43.51;101344.34;5004370;28;20426;-31
2023/07/04 10:38:04;;;;;;;7.47;2.00;;;;;;;23.46;42.89;101344.34;5004854;28;20104;-32
2023/07/04 10:40:37;;;;;;;9.38;2.60;;;;;;;23.47;43.17;101354.13;4999289;28;20042;-31
2023/07/04 10:43:13;;;;;;;10.63;3.50;;;;;;;23.45;43.24;101352.66;5005124;28;20052;-31
2023/07/04 10:45:43;;;;;;;17.85;6.50;;;;;;;23.45;42.82;101344.53;5004498;28;20457;-32
2023/07/04 10:48:30;;;;;;;13.00;4.70;;;;;;;23.43;42.80;101351.97;4998062;28;20140;-31
2023/07/04 10:51:22;;;;;;;12.13;3.60;;;;;;;23.43;42.39;101350.09;4999296;28;20050;-31
2023/07/04 10:53:49;;;;;;;10.80;3.15;;;;;;;23.44;42.69;101340.97;5001732;28;20094;-31
2023/07/04 10:56:30;;;;;;;8.85;3.38;;;;;;;23.44;42.42;101348.22;5007311;28;20128;-30
2023/07/04 10:59:14;;;;;;;9.20;2.95;;;;;;;23.45;42.78;101336.41;5001829;28;20135;-30
2023/07/04 11:01:58;;;;;;;9.82;2.88;;;;;;;23.46;42.58;101340.78;5003113;28;20055;-32
2023/07/04 11:04:31;;;;;;;12.50;3.38;;;;;;;23.46;43.11;101347.03;5002861;28;20046;-32
2023/07/04 11:07:04;;;;;;;7.65;3.20;;;;;;;23.46;42.49;101347.03;5003026;28;20042;-32
2023/07/04 11:09:55;;;;;;;12.95;3.13;;;;;;;23.47;42.29;101342.47;4997565;28;20057;-32
2023/07/04 11:12:26;;;;;;;9.82;3.03;;;;;;;23.49;42.24;101340.44;4999892;28;20054;-30
2023/07/04 11:15:00;;;;;;;8.60;3.05;;;;;;;23.49;42.27;101341.28;5000076;28;20390;-32
2023/07/04 11:17:30;;;;;;;9.95;2.83;;;;;;;23.50;42.75;101345.66;4996002;28;20250;-33
2023/07/04 11:20:13;;;;;;;5.80;2.47;;;;;;;23.52;42.65;101345.50;5002203;28;20058;-32
2023/07/04 11:22:51;;;;;;;7.32;2.25;;;;;;;23.52;42.58;101340.94;4997976;28;20057;-35
2023/07/04 11:25:41;;;;;;;8.13;2.25;;;;;;;23.55;42.47;101342.41;4999314;28;20057;-33
2023/07/04 11:28:41;;;;;;;7.82;2.15;;;;;;;23.54;42.07;101343.44;5000188;28;20422;-32
2023/07/04 11:31:07;;;;;;;12.25;2.38;;;;;;;23.56;42.38;101347.69;4996477;28;20139;-31
2023/07/04 11:33:38;;;;;;;6.45;2.20;;;;;;;23.55;41.67;101345.13;4997763;28;20123;-31
2023/07/04 11:36:16;;;;;;;12.73;3.05;;;;;;;23.56;41.57;101352.25;4992612;28;20292;-31
2023/07/04 11:38:51;;;;;;;8.80;2.55;;;;;;;23.55;41.99;101351.38;4997251;28;20042;-31
2023/07/04 11:41:31;;;;;;;16.77;6.60;;;;;;;23.57;41.44;101345.81;4959816;28;20670;-33